createdAt,value
2023-03-05T00:02:03.369Z,100.00
2023-03-05T00:04:32.198Z,100.00
2023-03-05T00:07:00.821Z,100.00
2023-03-05T00:09:31.168Z,100.00
2023-03-05T00:11:59.576Z,100.00
2023-03-05T00:14:28.271Z,100.00
2023-03-05T00:16:56.538Z,100.00
2023-03-05T00:19:26.980Z,100.00
2023-03-05T00:22:01.525Z,100.00
2023-03-05T00:24:30.002Z,100.00
2023-03-05T00:27:00.700Z,100.00
2023-03-05T00:29:31.721Z,100.00
2023-03-05T00:32:12.962Z,100.00
2023-03-05T00:34:41.209Z,100.00
2023-03-05T00:37:09.575Z,100.00
2023-03-05T00:39:40.530Z,100.00
2023-03-05T00:42:08.858Z,100.00
2023-03-05T00:44:39.832Z,100.00
2023-03-05T00:47:08.123Z,100.00
2023-03-05T00:49:39.905Z,100.00
2023-03-05T00:52:17.348Z,100.00
2023-03-05T00:54:45.402Z,100.00
2023-03-05T00:57:13.729Z,100.00
2023-03-05T00:59:43.330Z,100.00
2023-03-05T01:02:12.162Z,100.00
2023-03-05T01:04:40.592Z,100.00
2023-03-05T01:07:10.136Z,100.00
2023-03-05T01:09:38.816Z,100.00
2023-03-05T01:12:08.126Z,100.00
2023-03-05T01:14:38.936Z,100.00
2023-03-05T01:17:09.807Z,100.00
2023-03-05T01:19:43.016Z,100.00
2023-03-05T01:22:11.264Z,100.00
2023-03-05T01:24:39.487Z,100.00
2023-03-05T01:27:07.906Z,100.00
2023-03-05T01:29:37.186Z,100.00
2023-03-05T01:32:06.067Z,100.00
2023-03-05T01:34:34.370Z,100.00
2023-03-05T01:37:04.298Z,100.00
2023-03-05T01:39:33.482Z,100.00
2023-03-05T01:42:01.632Z,100.00
2023-03-05T01:44:31.289Z,100.00
2023-03-05T01:46:59.934Z,100.00
2023-03-05T01:49:30.796Z,100.00
2023-03-05T01:52:12.257Z,100.00
2023-03-05T01:54:54.306Z,100.00
2023-03-05T01:57:33.154Z,100.00
2023-03-05T02:00:10.049Z,100.00
2023-03-05T02:02:38.520Z,100.00
2023-03-05T02:05:12.140Z,100.00
2023-03-05T02:07:43.478Z,100.00
2023-03-05T02:10:21.500Z,100.00
2023-03-05T02:12:50.340Z,100.00
2023-03-05T02:15:30.750Z,100.00
2023-03-05T02:18:02.342Z,100.00
2023-03-05T02:20:49.505Z,100.00
2023-03-05T02:23:21.256Z,100.00
2023-03-05T02:25:50.178Z,100.00
2023-03-05T02:28:28.736Z,100.00
2023-03-05T02:30:58.213Z,100.00
2023-03-05T02:33:27.687Z,100.00
2023-03-05T02:35:55.867Z,100.00
2023-03-05T02:38:24.608Z,100.00
2023-03-05T02:40:56.650Z,100.00
2023-03-05T02:43:24.792Z,100.00
2023-03-05T02:45:55.167Z,100.00
2023-03-05T02:48:23.969Z,100.00
2023-03-05T02:50:53.036Z,100.00
2023-03-05T02:53:21.374Z,100.00
2023-03-05T02:55:50.325Z,100.00
2023-03-05T02:58:18.675Z,100.00
2023-03-05T03:00:49.820Z,100.00
2023-03-05T03:03:20.826Z,100.00
2023-03-05T03:05:48.990Z,100.00
2023-03-05T03:08:17.251Z,100.00
2023-03-05T03:10:46.005Z,100.00
2023-03-05T03:13:15.905Z,100.00
2023-03-05T03:15:48.967Z,100.00
2023-03-05T03:18:17.392Z,100.00
2023-03-05T03:20:46.038Z,100.00
2023-03-05T03:23:17.820Z,100.00
2023-03-05T03:25:45.812Z,100.00
2023-03-05T03:28:14.709Z,100.00
2023-03-05T03:30:42.835Z,100.00
2023-03-05T03:33:10.932Z,100.00
2023-03-05T03:35:39.458Z,100.00
2023-03-05T03:38:07.502Z,100.00
2023-03-05T03:40:37.694Z,100.00
2023-03-05T03:43:05.942Z,100.00
2023-03-05T03:45:33.965Z,100.00
2023-03-05T03:48:02.380Z,100.00
2023-03-05T03:50:30.966Z,100.00
2023-03-05T03:52:59.099Z,100.00
2023-03-05T03:55:28.870Z,100.00
2023-03-05T03:57:56.809Z,100.00
2023-03-05T04:00:25.216Z,100.00
2023-03-05T04:02:54.279Z,100.00
2023-03-05T04:05:22.699Z,100.00
2023-03-05T04:07:50.497Z,100.00
2023-03-05T04:10:18.786Z,100.00
2023-03-05T04:12:47.003Z,100.00
2023-03-05T04:15:19.384Z,100.00
2023-03-05T04:17:48.064Z,100.00
2023-03-05T04:20:17.824Z,100.00
2023-03-05T04:22:49.692Z,100.00
2023-03-05T04:25:17.646Z,100.00
2023-03-05T04:27:45.816Z,100.00
2023-03-05T04:30:33.721Z,100.00
2023-03-05T04:33:02.035Z,100.00
2023-03-05T04:35:30.111Z,100.00
2023-03-05T04:38:00.929Z,100.00
2023-03-05T04:40:29.379Z,100.00
2023-03-05T04:42:57.441Z,100.00
2023-03-05T04:45:25.846Z,100.00
2023-03-05T04:47:56.260Z,100.00
2023-03-05T04:50:26.846Z,100.00
2023-03-05T04:52:57.826Z,100.00
2023-03-05T04:55:25.766Z,100.00
2023-03-05T04:57:57.535Z,100.00
2023-03-05T05:00:25.978Z,100.00
2023-03-05T05:02:55.632Z,97.60
2023-03-05T05:05:26.752Z,92.85
2023-03-05T05:08:02.643Z,89.68
2023-03-05T05:10:31.974Z,87.62
2023-03-05T05:12:59.814Z,83.79
2023-03-05T05:15:27.931Z,83.57
2023-03-05T05:17:56.067Z,78.15
2023-03-05T05:20:26.603Z,79.66
2023-03-05T05:22:54.719Z,77.85
2023-03-05T05:25:22.777Z,83.72
2023-03-05T05:27:51.257Z,98.05
2023-03-05T05:30:19.512Z,100.00
2023-03-05T05:32:51.386Z,100.00
2023-03-05T05:35:19.537Z,100.00
2023-03-05T05:37:47.536Z,100.00
2023-03-05T05:40:35.817Z,100.00
2023-03-05T05:43:03.930Z,100.00
2023-03-05T05:45:34.056Z,100.00
2023-03-05T05:48:02.286Z,100.00
2023-03-05T05:50:30.593Z,100.00
2023-03-05T05:52:58.978Z,100.00
2023-03-05T05:55:27.169Z,100.00
2023-03-05T05:58:15.124Z,100.00
2023-03-05T06:00:45.474Z,100.00
2023-03-05T06:03:16.239Z,100.00
2023-03-05T06:05:44.216Z,100.00
2023-03-05T06:08:12.154Z,100.00
2023-03-05T06:10:40.061Z,100.00
2023-03-05T06:13:13.233Z,100.00
2023-03-05T06:15:42.787Z,100.00
2023-03-05T06:18:13.578Z,100.00
2023-03-05T06:20:42.392Z,100.00
2023-03-05T06:23:11.161Z,100.00
2023-03-05T06:25:39.679Z,100.00
2023-03-05T06:28:08.197Z,100.00
2023-03-05T06:30:36.414Z,100.00
2023-03-05T06:33:05.139Z,100.00
2023-03-05T06:35:33.898Z,100.00
2023-03-05T06:38:02.100Z,100.00
2023-03-05T06:40:30.338Z,100.00
2023-03-05T06:43:01.584Z,100.00
2023-03-05T06:45:29.972Z,100.00
2023-03-05T06:47:58.591Z,100.00
2023-03-05T06:50:26.644Z,98.15
2023-03-05T06:52:54.944Z,91.51
2023-03-05T06:55:24.936Z,89.79
2023-03-05T06:57:53.474Z,89.61
2023-03-05T07:00:23.163Z,88.93
2023-03-05T07:02:51.621Z,86.57
2023-03-05T07:05:19.666Z,87.38
2023-03-05T07:07:50.192Z,86.85
2023-03-05T07:10:19.115Z,84.91
2023-03-05T07:12:53.293Z,84.11
2023-03-05T07:15:22.269Z,82.74
2023-03-05T07:17:50.676Z,82.10
2023-03-05T07:20:20.177Z,80.01
2023-03-05T07:22:58.746Z,77.47
2023-03-05T07:25:26.832Z,75.70
2023-03-05T07:27:55.049Z,74.92
2023-03-05T07:30:24.922Z,74.09
2023-03-05T07:32:53.059Z,74.68
2023-03-05T07:35:24.855Z,75.64
2023-03-05T07:37:55.184Z,73.95
2023-03-05T07:40:23.472Z,73.24
2023-03-05T07:42:51.696Z,72.21
2023-03-05T07:45:19.836Z,64.19
2023-03-05T07:47:48.286Z,63.29
2023-03-05T07:50:17.223Z,64.01
2023-03-05T07:52:45.749Z,64.65
2023-03-05T07:55:27.731Z,65.03
2023-03-05T07:57:56.632Z,65.42
2023-03-05T08:00:24.745Z,64.28
2023-03-05T08:02:53.002Z,63.82
2023-03-05T08:05:25.267Z,62.87
2023-03-05T08:07:55.175Z,63.22
2023-03-05T08:10:23.593Z,62.33
2023-03-05T08:12:51.968Z,62.63
2023-03-05T08:15:22.746Z,62.62
2023-03-05T08:17:50.994Z,62.06
2023-03-05T08:20:19.558Z,61.65
2023-03-05T08:22:48.240Z,61.09
2023-03-05T08:25:18.272Z,62.49
2023-03-05T08:27:48.383Z,62.72
2023-03-05T08:30:20.679Z,63.27
2023-03-05T08:32:50.318Z,63.38
2023-03-05T08:35:18.524Z,63.83
2023-03-05T08:37:47.452Z,63.50
2023-03-05T08:40:18.830Z,63.99
2023-03-05T08:42:46.887Z,65.09
2023-03-05T08:45:15.471Z,64.38
2023-03-05T08:47:43.874Z,62.81
2023-03-05T08:50:15.355Z,62.09
2023-03-05T08:52:44.347Z,62.55
2023-03-05T08:55:15.679Z,61.47
2023-03-05T08:57:44.060Z,56.09
2023-03-05T09:00:13.044Z,48.98
2023-03-05T09:02:41.560Z,46.67
2023-03-05T09:05:10.260Z,44.90
2023-03-05T09:07:38.475Z,41.68
2023-03-05T09:10:07.888Z,41.53
2023-03-05T09:12:40.757Z,41.08
2023-03-05T09:15:12.703Z,41.01
2023-03-05T09:17:42.329Z,41.73
2023-03-05T09:20:14.481Z,41.44
2023-03-05T09:22:45.366Z,41.92
2023-03-05T09:25:13.792Z,42.20
2023-03-05T09:27:42.156Z,43.94
2023-03-05T09:30:16.072Z,44.72
2023-03-05T09:33:00.197Z,43.95
2023-03-05T09:35:28.868Z,42.64
2023-03-05T09:37:57.778Z,41.60
2023-03-05T09:40:27.947Z,41.72
2023-03-05T09:43:06.321Z,42.05
2023-03-05T09:45:45.341Z,41.00
2023-03-05T09:48:26.827Z,42.12
2023-03-05T09:51:06.063Z,42.31
2023-03-05T09:53:48.282Z,42.72
2023-03-05T09:56:21.993Z,42.30
2023-03-05T09:58:56.097Z,42.18
2023-03-05T10:01:29.629Z,42.60
2023-03-05T10:04:46.536Z,40.84
2023-03-05T10:07:19.138Z,40.10
2023-03-05T10:10:14.571Z,40.23
2023-03-05T10:12:49.360Z,40.33
2023-03-05T10:15:32.020Z,39.36
2023-03-05T10:18:31.028Z,39.72
2023-03-05T10:21:07.040Z,39.29
2023-03-05T10:24:03.370Z,40.97
2023-03-05T10:26:57.670Z,40.68
2023-03-05T10:29:41.342Z,41.52
2023-03-05T10:32:23.675Z,42.63
2023-03-05T10:35:33.674Z,43.14
2023-03-05T10:38:31.996Z,44.01
2023-03-05T10:41:08.387Z,44.82
2023-03-05T10:43:49.035Z,44.62
2023-03-05T10:46:22.447Z,43.91
2023-03-05T10:49:01.568Z,43.07
2023-03-05T10:51:36.915Z,43.38
2023-03-05T10:54:11.323Z,42.72
2023-03-05T10:56:39.490Z,42.13
2023-03-05T10:59:08.350Z,42.99
2023-03-05T11:01:37.979Z,42.73
2023-03-05T11:04:08.301Z,43.03
2023-03-05T11:06:42.306Z,43.44
2023-03-05T11:09:29.775Z,42.82
2023-03-05T11:12:10.960Z,42.72
2023-03-05T11:15:03.405Z,43.33
2023-03-05T11:17:33.225Z,45.37
2023-03-05T11:20:31.458Z,45.98
2023-03-05T11:23:17.211Z,45.75
2023-03-05T11:26:05.101Z,44.30
2023-03-05T11:28:52.389Z,43.31
2023-03-05T11:31:24.713Z,43.23
2023-03-05T11:34:03.735Z,43.47
2023-03-05T11:36:41.069Z,42.08
2023-03-05T11:39:17.752Z,40.56
2023-03-05T11:41:50.085Z,41.69
2023-03-05T11:44:41.401Z,42.42
2023-03-05T11:47:25.318Z,42.59
2023-03-05T11:50:33.318Z,43.42
2023-03-05T11:53:13.058Z,43.94
2023-03-05T11:55:44.024Z,44.23
2023-03-05T11:58:41.742Z,43.96
2023-03-05T12:01:22.606Z,43.80
2023-03-05T12:03:56.037Z,43.45
2023-03-05T12:06:41.356Z,43.93
2023-03-05T12:09:20.301Z,44.13
2023-03-05T12:12:12.668Z,44.59
2023-03-05T12:14:51.777Z,43.76
2023-03-05T12:17:51.107Z,43.83
2023-03-05T12:21:03.267Z,43.05
2023-03-05T12:23:48.645Z,43.20
2023-03-05T12:26:56.355Z,42.36
2023-03-05T12:29:29.560Z,42.17
2023-03-05T12:32:01.624Z,42.62
2023-03-05T12:34:43.041Z,42.62
2023-03-05T12:37:25.553Z,42.95
2023-03-05T12:40:13.211Z,42.42
2023-03-05T12:43:02.823Z,41.50
2023-03-05T12:45:34.396Z,42.25
2023-03-05T12:48:04.796Z,42.25
2023-03-05T12:50:39.017Z,42.95
2023-03-05T12:53:07.446Z,44.26
2023-03-05T12:56:01.021Z,45.13
2023-03-05T12:58:54.342Z,44.78
2023-03-05T13:02:01.542Z,44.39
2023-03-05T13:04:32.856Z,43.68
2023-03-05T13:07:15.916Z,43.30
2023-03-05T13:10:00.049Z,44.03
2023-03-05T13:12:59.920Z,43.39
2023-03-05T13:15:29.314Z,43.61
2023-03-05T13:18:03.662Z,43.39
2023-03-05T13:20:41.701Z,42.91
2023-03-05T13:23:23.438Z,42.48
2023-03-05T13:26:15.704Z,43.03
2023-03-05T13:28:46.232Z,42.99
2023-03-05T13:31:18.899Z,43.55
2023-03-05T13:33:54.484Z,41.95
2023-03-05T13:36:25.742Z,42.21
2023-03-05T13:38:55.027Z,42.84
2023-03-05T13:41:25.573Z,43.12
2023-03-05T13:43:56.073Z,43.82
2023-03-05T13:46:26.672Z,44.26
2023-03-05T13:49:00.927Z,44.65
2023-03-05T13:51:43.832Z,44.57
2023-03-05T13:54:15.788Z,44.75
2023-03-05T13:56:50.632Z,44.36
2023-03-05T13:59:21.877Z,44.08
2023-03-05T14:02:17.465Z,44.35
2023-03-05T14:04:46.419Z,44.81
2023-03-05T14:07:28.480Z,45.16
2023-03-05T14:10:00.323Z,45.17
2023-03-05T14:12:39.946Z,45.53
2023-03-05T14:15:34.174Z,46.42
2023-03-05T14:18:20.310Z,47.19
2023-03-05T14:21:09.251Z,47.54
2023-03-05T14:23:39.031Z,48.23
2023-03-05T14:26:29.204Z,48.16
2023-03-05T14:29:03.173Z,47.90
2023-03-05T14:31:50.011Z,46.89
2023-03-05T14:34:32.411Z,46.88
2023-03-05T14:37:03.640Z,46.73
2023-03-05T14:39:53.558Z,46.98
2023-03-05T14:42:39.504Z,47.28
2023-03-05T14:45:20.874Z,47.23
2023-03-05T14:47:51.115Z,46.74
2023-03-05T14:50:25.065Z,46.94
2023-03-05T14:53:16.819Z,47.14
2023-03-05T14:55:50.720Z,46.89
2023-03-05T14:58:29.505Z,47.26
2023-03-05T15:01:03.559Z,48.35
2023-03-05T15:03:33.408Z,49.26
2023-03-05T15:06:02.122Z,50.15
2023-03-05T15:08:33.331Z,50.67
2023-03-05T15:11:07.144Z,51.52
2023-03-05T15:13:36.897Z,51.80
2023-03-05T15:16:06.165Z,51.64
2023-03-05T15:18:37.047Z,51.92
2023-03-05T15:21:05.234Z,52.10
2023-03-05T15:23:36.789Z,52.67
2023-03-05T15:26:07.695Z,52.63
2023-03-05T15:28:39.767Z,53.15
2023-03-05T15:31:14.758Z,53.61
2023-03-05T15:33:42.941Z,53.89
2023-03-05T15:36:11.607Z,54.49
2023-03-05T15:38:42.106Z,54.91
2023-03-05T15:41:10.315Z,55.64
2023-03-05T15:43:42.006Z,55.96
2023-03-05T15:46:10.139Z,55.81
2023-03-05T15:48:40.599Z,56.25
2023-03-05T15:51:09.699Z,56.72
2023-03-05T15:53:37.784Z,56.96
2023-03-05T15:56:06.826Z,57.25
2023-03-05T15:58:37.531Z,57.77
2023-03-05T16:01:05.863Z,58.22
2023-03-05T16:03:37.153Z,58.66
2023-03-05T16:06:05.558Z,59.15
2023-03-05T16:08:37.228Z,59.50
2023-03-05T16:11:05.610Z,60.13
2023-03-05T16:13:34.854Z,60.74
2023-03-05T16:16:05.587Z,61.65
2023-03-05T16:18:35.651Z,63.03
2023-03-05T16:21:03.738Z,64.45
2023-03-05T16:23:31.675Z,65.66
2023-03-05T16:26:01.642Z,66.14
2023-03-05T16:28:30.665Z,66.75
2023-03-05T16:30:59.172Z,67.19
2023-03-05T16:33:30.049Z,69.33
2023-03-05T16:36:21.133Z,70.90
2023-03-05T16:38:50.852Z,70.84
2023-03-05T16:41:22.538Z,71.29
2023-03-05T16:43:54.045Z,72.85
2023-03-05T16:46:23.715Z,73.11
2023-03-05T16:48:51.871Z,74.04
2023-03-05T16:51:21.606Z,75.43
2023-03-05T16:53:50.655Z,75.50
2023-03-05T16:56:18.895Z,75.62
2023-03-05T16:58:53.267Z,75.81
2023-03-05T17:01:23.244Z,76.93
2023-03-05T17:03:54.231Z,77.93
2023-03-05T17:06:25.173Z,79.67
2023-03-05T17:08:54.429Z,80.74
2023-03-05T17:11:23.432Z,81.70
2023-03-05T17:13:53.852Z,83.61
2023-03-05T17:16:23.770Z,84.09
2023-03-05T17:18:53.866Z,85.92
2023-03-05T17:21:22.058Z,84.21
2023-03-05T17:23:50.625Z,83.72
2023-03-05T17:26:20.043Z,82.66
2023-03-05T17:28:48.494Z,82.05
2023-03-05T17:31:16.974Z,82.07
2023-03-05T17:33:46.705Z,82.13
2023-03-05T17:36:17.321Z,81.96
2023-03-05T17:38:48.094Z,82.35
2023-03-05T17:41:18.446Z,82.46
2023-03-05T17:43:47.059Z,81.98
2023-03-05T17:46:16.087Z,81.66
2023-03-05T17:48:44.603Z,82.25
2023-03-05T17:51:17.005Z,82.54
2023-03-05T17:53:46.489Z,82.66
2023-03-05T17:56:17.568Z,83.06
2023-03-05T17:58:46.013Z,83.55
2023-03-05T18:01:28.365Z,84.40
2023-03-05T18:03:56.894Z,84.29
2023-03-05T18:06:27.931Z,85.48
2023-03-05T18:08:59.304Z,85.62
2023-03-05T18:11:33.837Z,85.85
2023-03-05T18:14:06.909Z,85.83
2023-03-05T18:16:35.499Z,87.04
2023-03-05T18:19:03.656Z,87.04
2023-03-05T18:21:32.421Z,88.20
2023-03-05T18:24:00.858Z,89.04
2023-03-05T18:26:29.398Z,89.53
2023-03-05T18:28:57.672Z,90.23
2023-03-05T18:31:26.001Z,91.77
2023-03-05T18:33:54.829Z,93.72
2023-03-05T18:36:22.997Z,98.51
2023-03-05T18:38:51.817Z,99.10
2023-03-05T18:41:23.977Z,100.00
2023-03-05T18:43:54.132Z,100.00
2023-03-05T18:46:24.049Z,100.00
2023-03-05T18:48:55.535Z,100.00
2023-03-05T18:51:23.873Z,100.00
2023-03-05T18:53:55.304Z,100.00
2023-03-05T18:56:25.401Z,100.00
2023-03-05T18:58:53.523Z,100.00
2023-03-05T19:01:22.053Z,100.00
2023-03-05T19:03:49.984Z,100.00
2023-03-05T19:06:18.288Z,100.00
2023-03-05T19:08:56.987Z,100.00
2023-03-05T19:11:25.268Z,100.00
2023-03-05T19:13:53.105Z,100.00
2023-03-05T19:16:30.693Z,100.00
2023-03-05T19:19:20.434Z,100.00
2023-03-05T19:21:56.663Z,100.00
2023-03-05T19:24:26.837Z,100.00
2023-03-05T19:27:01.371Z,100.00
2023-03-05T19:29:34.576Z,100.00
2023-03-05T19:32:02.656Z,100.00
2023-03-05T19:34:31.373Z,100.00
2023-03-05T19:36:59.533Z,100.00
2023-03-05T19:39:33.601Z,100.00
2023-03-05T19:42:02.057Z,100.00
2023-03-05T19:44:31.420Z,100.00
2023-03-05T19:46:59.368Z,100.00
2023-03-05T19:49:32.885Z,100.00
2023-03-05T19:52:07.308Z,100.00
2023-03-05T19:54:35.588Z,100.00
2023-03-05T19:57:05.805Z,100.00
2023-03-05T19:59:34.057Z,100.00
2023-03-05T20:02:05.312Z,100.00
2023-03-05T20:04:35.601Z,100.00
2023-03-05T20:07:09.475Z,100.00
2023-03-05T20:09:37.536Z,100.00
2023-03-05T20:12:08.194Z,100.00
2023-03-05T20:14:40.375Z,100.00
2023-03-05T20:17:10.120Z,100.00
2023-03-05T20:19:39.735Z,100.00
2023-03-05T20:22:07.715Z,100.00
2023-03-05T20:24:36.242Z,100.00
2023-03-05T20:27:07.086Z,100.00
2023-03-05T20:29:39.933Z,100.00
2023-03-05T20:32:08.758Z,100.00
2023-03-05T20:34:36.893Z,100.00
2023-03-05T20:37:07.806Z,100.00
2023-03-05T20:39:38.490Z,100.00
2023-03-05T20:42:07.076Z,100.00
2023-03-05T20:44:36.952Z,100.00
2023-03-05T20:47:26.311Z,100.00
2023-03-05T20:49:57.783Z,100.00
2023-03-05T20:52:26.952Z,100.00
2023-03-05T20:54:58.536Z,100.00
2023-03-05T20:57:29.992Z,100.00
2023-03-05T20:59:58.143Z,100.00
2023-03-05T21:02:26.841Z,100.00
2023-03-05T21:04:57.258Z,100.00
2023-03-05T21:07:29.986Z,100.00
2023-03-05T21:10:00.194Z,100.00
2023-03-05T21:12:29.870Z,100.00
2023-03-05T21:14:58.983Z,100.00
2023-03-05T21:17:31.472Z,100.00
2023-03-05T21:20:01.876Z,100.00
2023-03-05T21:22:30.409Z,100.00
2023-03-05T21:25:16.755Z,100.00
2023-03-05T21:27:45.725Z,100.00
2023-03-05T21:30:19.662Z,100.00
2023-03-05T21:32:50.256Z,100.00
2023-03-05T21:35:22.777Z,100.00
2023-03-05T21:37:53.887Z,100.00
2023-03-05T21:40:23.022Z,100.00
2023-03-05T21:42:53.504Z,100.00
2023-03-05T21:45:24.888Z,100.00
2023-03-05T21:47:56.606Z,100.00
2023-03-05T21:50:25.944Z,100.00
2023-03-05T21:52:55.548Z,100.00
2023-03-05T21:55:31.122Z,100.00
2023-03-05T21:58:02.598Z,100.00
2023-03-05T22:00:30.912Z,100.00
2023-03-05T22:03:00.118Z,100.00
2023-03-05T22:05:28.534Z,100.00
2023-03-05T22:07:59.513Z,100.00
2023-03-05T22:10:29.492Z,100.00
2023-03-05T22:13:12.424Z,100.00
2023-03-05T22:15:52.181Z,100.00
2023-03-05T22:18:29.799Z,100.00
2023-03-05T22:20:59.016Z,100.00
2023-03-05T22:23:29.923Z,100.00
2023-03-05T22:26:00.622Z,100.00
2023-03-05T22:28:30.284Z,100.00
2023-03-05T22:31:01.640Z,100.00
2023-03-05T22:33:31.100Z,100.00
2023-03-05T22:36:00.555Z,100.00
2023-03-05T22:38:29.381Z,100.00
2023-03-05T22:41:09.040Z,100.00
2023-03-05T22:43:37.977Z,100.00
2023-03-05T22:46:11.748Z,100.00
2023-03-05T22:48:41.455Z,100.00
2023-03-05T22:51:10.712Z,100.00
2023-03-05T22:53:39.879Z,100.00
2023-03-05T22:56:13.442Z,100.00
2023-03-05T22:58:41.708Z,100.00
2023-03-05T23:01:23.838Z,100.00
2023-03-05T23:03:58.973Z,100.00
2023-03-05T23:06:27.141Z,100.00
2023-03-05T23:08:55.383Z,100.00
2023-03-05T23:11:23.574Z,100.00
2023-03-05T23:13:51.980Z,100.00
2023-03-05T23:16:20.265Z,100.00
2023-03-05T23:18:49.364Z,100.00
2023-03-05T23:21:17.505Z,100.00
2023-03-05T23:23:45.832Z,100.00
2023-03-05T23:26:14.678Z,100.00
2023-03-05T23:28:45.293Z,100.00
2023-03-05T23:31:13.897Z,100.00
2023-03-05T23:33:41.887Z,100.00
2023-03-05T23:36:13.465Z,100.00
2023-03-05T23:38:41.970Z,100.00
2023-03-05T23:41:10.367Z,100.00
2023-03-05T23:43:58.339Z,100.00
2023-03-05T23:46:26.830Z,100.00
2023-03-05T23:48:55.405Z,100.00
2023-03-05T23:51:23.653Z,100.00
2023-03-05T23:53:52.480Z,100.00
2023-03-05T23:56:21.556Z,100.00
2023-03-05T23:58:49.751Z,100.00
